McCarran International Airport
KLAS : now visible

Airfield :











YOU CAN JOIN US ON...

 
LOGIN :

Register | Disclaimer

   EN    FR    IT 

 









Legend :    VFR   Marginal VFR   IFR   Intensive IFR   Very Intensive IFR
Visi :
Ceiling :
>= 8 km
>= 3000ft
5 to 8 km
1000 to 3000 ft
1500m to 5 km
500 to 1000 ft
800 to 1500m
200 to 500 ft
< 800m
< 200 ft
Symbols :   Thunderstorms  Fog  Heavy snow  Heavy precipitations  Wind > 20 kt







- Airport Elevation : 2181 ft
- IATA code : LAS


KLAS - McCarran International

CURRENT METAR :
  • 201156Z 00000KT 10SM FEW190 BKN250 01/M07 A2987 RMK AO2 SLP120 T00061067 10039 20006 58021

EXPIRED METARs :
  • 201056Z 28004KT 10SM BKN190 01/M07 A2990 RMK AO2 SLP128 T00111067
  • 200956Z 26004KT 10SM BKN220 02/M07 A2993 RMK AO2 SLP140 T00171067

TAF KLAS
Valid from the 20 at 12:00 until the 21 at 18:00 UTC


201123Z 2012/2118 19006KT P6SM FEW150
FM201900 19012G22KT P6SM BKN090
FM210200 20010KT P6SM VCSH BKN050 OVC080
FM210500 21010KT 5SM -SNRA OVC050
FM211100 22010KT 3SM -SHSN BR OVC030
KZLA FIR / North America



MET'MAP, your aeronautical weather chart ! - Copyright ORBIFLY December 2007 - Disclaimer

ORBIFLY MET'MAP TEAM :

Programming & Development : Alexandra Zaïnal
Concept & Development : Baudouin d'Aumeries
Co-Development & Prog : Marc-Olivier Méhu
Technical & hardware support : Manuel Goepfert

Contact : metmap@orbifly.com




SOURCES & CREDITS :

   NOAA       Earth
Advisory